sensor_id;sensor_type;location;lat;lon;timestamp;P1;durP1;ratioP1;P2;durP2;ratioP2
19084;SDS011;9675;51.538;6.728;2022-09-09T00:02:17;0.50;;;0.17;;
19084;SDS011;9675;51.538;6.728;2022-09-09T00:04:50;0.17;;;0.10;;
19084;SDS011;9675;51.538;6.728;2022-09-09T00:07:30;0.10;;;0.10;;
19084;SDS011;9675;51.538;6.728;2022-09-09T00:10:17;0.03;;;0.03;;
19084;SDS011;9675;51.538;6.728;2022-09-09T00:12:55;0.20;;;0.10;;
19084;SDS011;9675;51.538;6.728;2022-09-09T00:15:33;0.10;;;0.10;;
19084;SDS011;9675;51.538;6.728;2022-09-09T00:18:12;0.07;;;0.07;;
19084;SDS011;9675;51.538;6.728;2022-09-09T00:20:52;0.53;;;0.30;;
19084;SDS011;9675;51.538;6.728;2022-09-09T00:23:28;0.97;;;0.00;;
19084;SDS011;9675;51.538;6.728;2022-09-09T00:26:01;0.13;;;0.13;;
19084;SDS011;9675;51.538;6.728;2022-09-09T00:28:36;0.10;;;0.10;;
19084;SDS011;9675;51.538;6.728;2022-09-09T00:31:15;0.20;;;0.20;;
19084;SDS011;9675;51.538;6.728;2022-09-09T00:33:48;1.63;;;0.43;;
19084;SDS011;9675;51.538;6.728;2022-09-09T00:36:18;0.63;;;0.30;;
19084;SDS011;9675;51.538;6.728;2022-09-09T00:38:51;0.10;;;0.10;;
19084;SDS011;9675;51.538;6.728;2022-09-09T00:41:26;4.40;;;0.20;;
19084;SDS011;9675;51.538;6.728;2022-09-09T00:44:19;0.33;;;0.20;;
19084;SDS011;9675;51.538;6.728;2022-09-09T00:47:06;2.33;;;0.30;;
19084;SDS011;9675;51.538;6.728;2022-09-09T00:49:48;2.43;;;0.60;;
19084;SDS011;9675;51.538;6.728;2022-09-09T00:52:30;0.50;;;0.30;;
19084;SDS011;9675;51.538;6.728;2022-09-09T00:55:07;0.10;;;0.10;;
19084;SDS011;9675;51.538;6.728;2022-09-09T00:57:43;0.10;;;0.10;;
19084;SDS011;9675;51.538;6.728;2022-09-09T01:00:16;0.47;;;0.30;;
19084;SDS011;9675;51.538;6.728;2022-09-09T01:02:52;0.70;;;0.33;;
19084;SDS011;9675;51.538;6.728;2022-09-09T01:05:43;2.17;;;0.87;;
19084;SDS011;9675;51.538;6.728;2022-09-09T01:08:26;4.20;;;0.87;;
19084;SDS011;9675;51.538;6.728;2022-09-09T01:11:10;0.70;;;0.50;;
19084;SDS011;9675;51.538;6.728;2022-09-09T01:13:46;1.00;;;0.60;;
19084;SDS011;9675;51.538;6.728;2022-09-09T01:16:24;1.17;;;0.50;;
19084;SDS011;9675;51.538;6.728;2022-09-09T01:18:53;1.07;;;0.47;;
19084;SDS011;9675;51.538;6.728;2022-09-09T01:21:25;1.03;;;0.40;;
19084;SDS011;9675;51.538;6.728;2022-09-09T01:24:12;5.67;;;0.83;;
19084;SDS011;9675;51.538;6.728;2022-09-09T01:26:50;0.93;;;0.40;;
19084;SDS011;9675;51.538;6.728;2022-09-09T01:29:20;1.50;;;0.67;;
19084;SDS011;9675;51.538;6.728;2022-09-09T01:31:52;1.20;;;0.40;;
19084;SDS011;9675;51.538;6.728;2022-09-09T01:34:22;2.63;;;0.77;;
19084;SDS011;9675;51.538;6.728;2022-09-09T01:36:53;0.57;;;0.40;;
19084;SDS011;9675;51.538;6.728;2022-09-09T01:39:29;0.60;;;0.37;;
19084;SDS011;9675;51.538;6.728;2022-09-09T01:41:58;3.07;;;0.70;;
19084;SDS011;9675;51.538;6.728;2022-09-09T01:44:26;2.47;;;0.80;;
19084;SDS011;9675;51.538;6.728;2022-09-09T01:46:56;3.40;;;1.00;;
19084;SDS011;9675;51.538;6.728;2022-09-09T01:49:23;3.87;;;1.37;;
19084;SDS011;9675;51.538;6.728;2022-09-09T01:51:51;5.17;;;1.37;;
19084;SDS011;9675;51.538;6.728;2022-09-09T01:54:21;2.37;;;1.10;;
19084;SDS011;9675;51.538;6.728;2022-09-09T01:56:55;2.80;;;1.27;;
19084;SDS011;9675;51.538;6.728;2022-09-09T01:59:42;2.07;;;0.90;;
19084;SDS011;9675;51.538;6.728;2022-09-09T02:02:25;1.80;;;1.10;;
19084;SDS011;9675;51.538;6.728;2022-09-09T02:05:01;1.53;;;1.00;;
19084;SDS011;9675;51.538;6.728;2022-09-09T02:07:45;2.20;;;1.13;;
19084;SDS011;9675;51.538;6.728;2022-09-09T02:10:18;2.90;;;1.27;;
19084;SDS011;9675;51.538;6.728;2022-09-09T02:12:52;2.60;;;1.00;;
19084;SDS011;9675;51.538;6.728;2022-09-09T02:15:30;3.03;;;0.90;;
19084;SDS011;9675;51.538;6.728;2022-09-09T02:18:06;2.50;;;0.90;;
19084;SDS011;9675;51.538;6.728;2022-09-09T02:20:37;3.50;;;1.10;;
19084;SDS011;9675;51.538;6.728;2022-09-09T02:23:05;1.10;;;0.77;;
19084;SDS011;9675;51.538;6.728;2022-09-09T02:25:35;3.77;;;0.80;;
19084;SDS011;9675;51.538;6.728;2022-09-09T02:28:06;2.33;;;1.30;;
19084;SDS011;9675;51.538;6.728;2022-09-09T02:30:37;3.03;;;1.03;;
19084;SDS011;9675;51.538;6.728;2022-09-09T02:33:08;2.70;;;1.03;;
19084;SDS011;9675;51.538;6.728;2022-09-09T02:35:38;2.27;;;0.80;;
19084;SDS011;9675;51.538;6.728;2022-09-09T02:38:12;1.33;;;0.87;;
19084;SDS011;9675;51.538;6.728;2022-09-09T02:40:42;2.33;;;0.57;;
19084;SDS011;9675;51.538;6.728;2022-09-09T02:43:11;3.87;;;1.07;;
19084;SDS011;9675;51.538;6.728;2022-09-09T02:45:41;1.27;;;0.70;;
19084;SDS011;9675;51.538;6.728;2022-09-09T02:48:20;2.37;;;0.80;;
19084;SDS011;9675;51.538;6.728;2022-09-09T02:51:01;2.63;;;0.80;;
19084;SDS011;9675;51.538;6.728;2022-09-09T02:53:42;7.23;;;0.90;;
19084;SDS011;9675;51.538;6.728;2022-09-09T02:56:29;4.20;;;0.77;;
19084;SDS011;9675;51.538;6.728;2022-09-09T02:59:06;1.53;;;0.60;;
19084;SDS011;9675;51.538;6.728;2022-09-09T03:01:35;0.87;;;0.50;;
19084;SDS011;9675;51.538;6.728;2022-09-09T03:04:05;1.37;;;0.63;;
19084;SDS011;9675;51.538;6.728;2022-09-09T03:06:32;0.87;;;0.53;;
19084;SDS011;9675;51.538;6.728;2022-09-09T03:09:00;1.63;;;0.50;;
19084;SDS011;9675;51.538;6.728;2022-09-09T03:11:28;3.70;;;0.80;;
19084;SDS011;9675;51.538;6.728;2022-09-09T03:13:55;6.17;;;1.00;;
19084;SDS011;9675;51.538;6.728;2022-09-09T03:16:23;1.10;;;0.50;;
19084;SDS011;9675;51.538;6.728;2022-09-09T03:18:51;1.47;;;0.57;;
19084;SDS011;9675;51.538;6.728;2022-09-09T03:21:18;3.07;;;0.90;;
19084;SDS011;9675;51.538;6.728;2022-09-09T03:23:45;1.53;;;0.80;;
19084;SDS011;9675;51.538;6.728;2022-09-09T03:26:13;4.90;;;0.90;;
19084;SDS011;9675;51.538;6.728;2022-09-09T03:28:40;5.93;;;0.70;;
19084;SDS011;9675;51.538;6.728;2022-09-09T03:31:09;3.83;;;0.60;;
19084;SDS011;9675;51.538;6.728;2022-09-09T03:33:39;2.83;;;0.73;;
19084;SDS011;9675;51.538;6.728;2022-09-09T03:36:07;1.73;;;0.40;;
19084;SDS011;9675;51.538;6.728;2022-09-09T03:38:35;3.97;;;0.70;;
19084;SDS011;9675;51.538;6.728;2022-09-09T03:41:02;1.53;;;0.70;;
19084;SDS011;9675;51.538;6.728;2022-09-09T03:43:33;2.63;;;0.77;;
19084;SDS011;9675;51.538;6.728;2022-09-09T03:46:01;1.07;;;0.60;;
19084;SDS011;9675;51.538;6.728;2022-09-09T03:48:28;1.37;;;0.33;;
19084;SDS011;9675;51.538;6.728;2022-09-09T03:50:57;1.87;;;0.50;;
19084;SDS011;9675;51.538;6.728;2022-09-09T03:53:26;2.73;;;0.70;;
19084;SDS011;9675;51.538;6.728;2022-09-09T03:55:55;7.30;;;0.90;;
19084;SDS011;9675;51.538;6.728;2022-09-09T03:58:25;3.30;;;0.80;;
19084;SDS011;9675;51.538;6.728;2022-09-09T04:00:54;1.23;;;0.67;;
19084;SDS011;9675;51.538;6.728;2022-09-09T04:03:23;2.77;;;0.83;;
19084;SDS011;9675;51.538;6.728;2022-09-09T04:05:50;3.37;;;1.13;;
19084;SDS011;9675;51.538;6.728;2022-09-09T04:08:19;1.60;;;0.90;;
19084;SDS011;9675;51.538;6.728;2022-09-09T04:10:47;2.30;;;0.80;;
19084;SDS011;9675;51.538;6.728;2022-09-09T04:13:15;5.13;;;1.00;;
19084;SDS011;9675;51.538;6.728;2022-09-09T04:15:48;2.83;;;0.53;;
19084;SDS011;9675;51.538;6.728;2022-09-09T04:18:18;1.67;;;0.70;;
19084;SDS011;9675;51.538;6.728;2022-09-09T04:20:45;1.27;;;0.30;;
19084;SDS011;9675;51.538;6.728;2022-09-09T04:23:13;1.47;;;0.47;;
19084;SDS011;9675;51.538;6.728;2022-09-09T04:25:44;1.63;;;0.90;;
19084;SDS011;9675;51.538;6.728;2022-09-09T04:28:13;1.37;;;0.50;;
19084;SDS011;9675;51.538;6.728;2022-09-09T04:30:40;1.37;;;0.70;;
19084;SDS011;9675;51.538;6.728;2022-09-09T04:33:07;3.43;;;0.63;;
19084;SDS011;9675;51.538;6.728;2022-09-09T04:35:35;3.13;;;0.43;;
19084;SDS011;9675;51.538;6.728;2022-09-09T04:38:03;1.63;;;0.63;;
19084;SDS011;9675;51.538;6.728;2022-09-09T04:40:32;1.80;;;0.67;;
19084;SDS011;9675;51.538;6.728;2022-09-09T04:43:01;0.90;;;0.57;;
19084;SDS011;9675;51.538;6.728;2022-09-09T04:45:30;1.97;;;0.73;;
19084;SDS011;9675;51.538;6.728;2022-09-09T04:47:57;4.40;;;0.80;;
19084;SDS011;9675;51.538;6.728;2022-09-09T04:50:24;4.53;;;0.60;;
19084;SDS011;9675;51.538;6.728;2022-09-09T04:52:53;2.70;;;0.60;;
19084;SDS011;9675;51.538;6.728;2022-09-09T04:55:20;0.80;;;0.50;;
19084;SDS011;9675;51.538;6.728;2022-09-09T04:57:47;2.27;;;0.73;;
19084;SDS011;9675;51.538;6.728;2022-09-09T05:00:16;5.33;;;1.00;;
19084;SDS011;9675;51.538;6.728;2022-09-09T05:02:44;0.73;;;0.50;;
19084;SDS011;9675;51.538;6.728;2022-09-09T05:05:12;2.80;;;0.87;;
19084;SDS011;9675;51.538;6.728;2022-09-09T05:07:40;3.20;;;1.00;;
19084;SDS011;9675;51.538;6.728;2022-09-09T05:10:07;4.80;;;1.27;;
19084;SDS011;9675;51.538;6.728;2022-09-09T05:12:35;2.87;;;1.00;;
19084;SDS011;9675;51.538;6.728;2022-09-09T05:15:03;2.63;;;0.67;;
19084;SDS011;9675;51.538;6.728;2022-09-09T05:17:32;5.03;;;1.30;;
19084;SDS011;9675;51.538;6.728;2022-09-09T05:20:00;2.40;;;1.20;;
19084;SDS011;9675;51.538;6.728;2022-09-09T05:22:29;1.00;;;0.70;;
19084;SDS011;9675;51.538;6.728;2022-09-09T05:24:56;6.07;;;1.40;;
19084;SDS011;9675;51.538;6.728;2022-09-09T05:27:23;2.90;;;1.50;;
19084;SDS011;9675;51.538;6.728;2022-09-09T05:29:50;8.90;;;2.70;;
19084;SDS011;9675;51.538;6.728;2022-09-09T05:32:18;14.53;;;2.60;;
19084;SDS011;9675;51.538;6.728;2022-09-09T05:34:46;12.20;;;2.37;;
19084;SDS011;9675;51.538;6.728;2022-09-09T05:37:13;9.63;;;2.57;;
19084;SDS011;9675;51.538;6.728;2022-09-09T05:39:41;2.47;;;1.03;;
19084;SDS011;9675;51.538;6.728;2022-09-09T05:42:08;6.20;;;1.60;;
19084;SDS011;9675;51.538;6.728;2022-09-09T05:44:35;3.77;;;1.00;;
19084;SDS011;9675;51.538;6.728;2022-09-09T05:47:03;2.23;;;1.10;;
19084;SDS011;9675;51.538;6.728;2022-09-09T05:49:30;3.80;;;1.07;;
19084;SDS011;9675;51.538;6.728;2022-09-09T05:51:59;8.00;;;1.50;;
19084;SDS011;9675;51.538;6.728;2022-09-09T05:54:26;2.33;;;0.90;;
19084;SDS011;9675;51.538;6.728;2022-09-09T05:56:53;1.50;;;0.80;;
19084;SDS011;9675;51.538;6.728;2022-09-09T05:59:20;4.90;;;1.00;;
19084;SDS011;9675;51.538;6.728;2022-09-09T06:01:48;3.30;;;0.70;;
19084;SDS011;9675;51.538;6.728;2022-09-09T06:04:16;3.60;;;0.80;;
19084;SDS011;9675;51.538;6.728;2022-09-09T06:06:43;1.47;;;0.90;;
19084;SDS011;9675;51.538;6.728;2022-09-09T06:09:11;4.37;;;1.00;;
19084;SDS011;9675;51.538;6.728;2022-09-09T06:11:38;4.27;;;0.90;;
19084;SDS011;9675;51.538;6.728;2022-09-09T06:14:06;0.93;;;0.67;;
19084;SDS011;9675;51.538;6.728;2022-09-09T06:16:34;6.23;;;1.40;;
19084;SDS011;9675;51.538;6.728;2022-09-09T06:19:03;3.40;;;0.67;;
19084;SDS011;9675;51.538;6.728;2022-09-09T06:21:31;4.57;;;1.20;;
19084;SDS011;9675;51.538;6.728;2022-09-09T06:24:01;4.30;;;0.90;;
19084;SDS011;9675;51.538;6.728;2022-09-09T06:26:31;2.10;;;1.13;;
19084;SDS011;9675;51.538;6.728;2022-09-09T06:28:59;1.03;;;0.53;;
19084;SDS011;9675;51.538;6.728;2022-09-09T06:31:29;2.17;;;0.90;;
19084;SDS011;9675;51.538;6.728;2022-09-09T06:33:59;4.83;;;1.37;;
19084;SDS011;9675;51.538;6.728;2022-09-09T06:36:27;2.60;;;0.80;;
19084;SDS011;9675;51.538;6.728;2022-09-09T06:38:57;3.33;;;0.90;;
19084;SDS011;9675;51.538;6.728;2022-09-09T06:41:25;4.70;;;0.90;;
19084;SDS011;9675;51.538;6.728;2022-09-09T06:43:56;2.43;;;1.00;;
19084;SDS011;9675;51.538;6.728;2022-09-09T06:46:24;5.10;;;0.80;;
19084;SDS011;9675;51.538;6.728;2022-09-09T06:48:53;4.37;;;1.13;;
19084;SDS011;9675;51.538;6.728;2022-09-09T06:51:24;2.00;;;0.60;;
19084;SDS011;9675;51.538;6.728;2022-09-09T06:53:54;0.80;;;0.60;;
19084;SDS011;9675;51.538;6.728;2022-09-09T06:56:24;3.93;;;0.70;;
19084;SDS011;9675;51.538;6.728;2022-09-09T06:58:54;3.40;;;1.07;;
19084;SDS011;9675;51.538;6.728;2022-09-09T07:01:26;1.20;;;0.70;;
19084;SDS011;9675;51.538;6.728;2022-09-09T07:03:56;4.90;;;1.00;;
19084;SDS011;9675;51.538;6.728;2022-09-09T07:06:25;2.57;;;0.80;;
19084;SDS011;9675;51.538;6.728;2022-09-09T07:08:54;1.67;;;0.90;;
19084;SDS011;9675;51.538;6.728;2022-09-09T07:11:24;2.63;;;0.60;;
19084;SDS011;9675;51.538;6.728;2022-09-09T07:13:53;1.97;;;0.53;;
19084;SDS011;9675;51.538;6.728;2022-09-09T07:16:24;1.00;;;0.67;;
19084;SDS011;9675;51.538;6.728;2022-09-09T07:18:54;2.33;;;0.47;;
19084;SDS011;9675;51.538;6.728;2022-09-09T07:21:23;1.40;;;0.40;;
19084;SDS011;9675;51.538;6.728;2022-09-09T07:23:51;1.53;;;0.60;;
19084;SDS011;9675;51.538;6.728;2022-09-09T07:26:20;2.03;;;0.47;;
19084;SDS011;9675;51.538;6.728;2022-09-09T07:28:50;0.93;;;0.43;;
19084;SDS011;9675;51.538;6.728;2022-09-09T07:31:19;1.40;;;0.57;;
19084;SDS011;9675;51.538;6.728;2022-09-09T07:33:50;0.80;;;0.43;;
19084;SDS011;9675;51.538;6.728;2022-09-09T07:36:18;1.80;;;0.73;;
19084;SDS011;9675;51.538;6.728;2022-09-09T07:38:48;3.40;;;0.90;;
19084;SDS011;9675;51.538;6.728;2022-09-09T07:41:18;2.73;;;0.60;;
19084;SDS011;9675;51.538;6.728;2022-09-09T07:43:48;1.37;;;0.83;;
19084;SDS011;9675;51.538;6.728;2022-09-09T07:46:21;2.10;;;0.87;;
19084;SDS011;9675;51.538;6.728;2022-09-09T07:48:51;0.63;;;0.33;;
19084;SDS011;9675;51.538;6.728;2022-09-09T07:51:22;1.63;;;0.40;;
19084;SDS011;9675;51.538;6.728;2022-09-09T07:53:52;0.70;;;0.30;;
19084;SDS011;9675;51.538;6.728;2022-09-09T07:56:22;1.80;;;0.67;;
19084;SDS011;9675;51.538;6.728;2022-09-09T07:58:51;0.70;;;0.37;;
19084;SDS011;9675;51.538;6.728;2022-09-09T08:01:22;2.23;;;0.77;;
19084;SDS011;9675;51.538;6.728;2022-09-09T08:03:54;2.13;;;0.93;;
19084;SDS011;9675;51.538;6.728;2022-09-09T08:06:26;4.90;;;0.87;;
19084;SDS011;9675;51.538;6.728;2022-09-09T08:08:55;3.80;;;0.53;;
19084;SDS011;9675;51.538;6.728;2022-09-09T08:11:22;4.90;;;0.50;;
19084;SDS011;9675;51.538;6.728;2022-09-09T08:13:52;3.17;;;0.50;;
19084;SDS011;9675;51.538;6.728;2022-09-09T08:16:23;0.83;;;0.70;;
19084;SDS011;9675;51.538;6.728;2022-09-09T08:18:53;3.13;;;0.40;;
19084;SDS011;9675;51.538;6.728;2022-09-09T08:21:22;0.37;;;0.20;;
19084;SDS011;9675;51.538;6.728;2022-09-09T08:23:53;2.27;;;0.40;;
19084;SDS011;9675;51.538;6.728;2022-09-09T08:26:22;0.70;;;0.50;;
19084;SDS011;9675;51.538;6.728;2022-09-09T08:28:53;0.47;;;0.30;;
19084;SDS011;9675;51.538;6.728;2022-09-09T08:31:25;0.93;;;0.30;;
19084;SDS011;9675;51.538;6.728;2022-09-09T08:33:55;10.53;;;1.03;;
19084;SDS011;9675;51.538;6.728;2022-09-09T08:36:25;0.60;;;0.23;;
19084;SDS011;9675;51.538;6.728;2022-09-09T08:38:56;0.20;;;0.20;;
19084;SDS011;9675;51.538;6.728;2022-09-09T08:44:54;2.07;;;0.57;;
19084;SDS011;9675;51.538;6.728;2022-09-09T08:47:49;0.87;;;0.47;;
19084;SDS011;9675;51.538;6.728;2022-09-09T08:50:30;1.23;;;0.30;;
19084;SDS011;9675;51.538;6.728;2022-09-09T08:53:01;0.43;;;0.30;;
19084;SDS011;9675;51.538;6.728;2022-09-09T08:55:37;0.50;;;0.20;;
19084;SDS011;9675;51.538;6.728;2022-09-09T08:58:12;0.40;;;0.20;;
19084;SDS011;9675;51.538;6.728;2022-09-09T09:00:44;2.93;;;0.90;;
19084;SDS011;9675;51.538;6.728;2022-09-09T09:03:50;3.33;;;0.23;;
19084;SDS011;9675;51.538;6.728;2022-09-09T09:06:29;3.40;;;0.90;;
19084;SDS011;9675;51.538;6.728;2022-09-09T09:09:16;0.30;;;0.30;;
19084;SDS011;9675;51.538;6.728;2022-09-09T09:11:53;1.83;;;0.50;;
19084;SDS011;9675;51.538;6.728;2022-09-09T09:14:26;1.17;;;0.20;;
19084;SDS011;9675;51.538;6.728;2022-09-09T09:16:59;1.60;;;0.20;;
19084;SDS011;9675;51.538;6.728;2022-09-09T09:19:32;2.33;;;0.40;;
19084;SDS011;9675;51.538;6.728;2022-09-09T09:22:04;0.30;;;0.20;;
19084;SDS011;9675;51.538;6.728;2022-09-09T09:24:44;2.60;;;0.70;;
19084;SDS011;9675;51.538;6.728;2022-09-09T09:27:21;0.90;;;0.53;;
19084;SDS011;9675;51.538;6.728;2022-09-09T09:29:58;0.20;;;0.20;;
19084;SDS011;9675;51.538;6.728;2022-09-09T09:32:33;2.20;;;0.67;;
19084;SDS011;9675;51.538;6.728;2022-09-09T09:35:06;2.53;;;0.40;;
19084;SDS011;9675;51.538;6.728;2022-09-09T09:37:40;1.33;;;0.80;;
19084;SDS011;9675;51.538;6.728;2022-09-09T09:40:09;3.13;;;1.20;;
19084;SDS011;9675;51.538;6.728;2022-09-09T09:42:37;4.13;;;0.60;;
19084;SDS011;9675;51.538;6.728;2022-09-09T09:45:17;0.10;;;0.10;;
19084;SDS011;9675;51.538;6.728;2022-09-09T09:47:59;0.53;;;0.20;;
19084;SDS011;9675;51.538;6.728;2022-09-09T09:50:32;0.47;;;0.20;;
19084;SDS011;9675;51.538;6.728;2022-09-09T09:53:01;0.33;;;0.20;;
19084;SDS011;9675;51.538;6.728;2022-09-09T09:55:31;0.40;;;0.30;;
19084;SDS011;9675;51.538;6.728;2022-09-09T09:58:02;2.03;;;0.20;;
19084;SDS011;9675;51.538;6.728;2022-09-09T10:00:32;1.73;;;0.60;;
19084;SDS011;9675;51.538;6.728;2022-09-09T10:03:00;4.33;;;0.47;;
19084;SDS011;9675;51.538;6.728;2022-09-09T10:05:44;1.43;;;0.53;;
19084;SDS011;9675;51.538;6.728;2022-09-09T10:08:13;1.10;;;0.40;;
19084;SDS011;9675;51.538;6.728;2022-09-09T10:10:46;1.17;;;0.20;;
19084;SDS011;9675;51.538;6.728;2022-09-09T10:13:31;3.23;;;0.27;;
19084;SDS011;9675;51.538;6.728;2022-09-09T10:16:16;0.10;;;0.10;;
19084;SDS011;9675;51.538;6.728;2022-09-09T10:18:58;1.13;;;0.30;;
19084;SDS011;9675;51.538;6.728;2022-09-09T10:21:36;1.30;;;0.30;;
19084;SDS011;9675;51.538;6.728;2022-09-09T10:24:36;1.93;;;0.30;;
19084;SDS011;9675;51.538;6.728;2022-09-09T10:27:29;0.90;;;0.47;;
19084;SDS011;9675;51.538;6.728;2022-09-09T10:30:11;4.27;;;0.30;;
19084;SDS011;9675;51.538;6.728;2022-09-09T10:32:48;0.63;;;0.30;;
19084;SDS011;9675;51.538;6.728;2022-09-09T10:35:29;0.30;;;0.30;;
19084;SDS011;9675;51.538;6.728;2022-09-09T10:40:50;2.10;;;0.40;;
19084;SDS011;9675;51.538;6.728;2022-09-09T10:43:46;0.30;;;0.30;;
19084;SDS011;9675;51.538;6.728;2022-09-09T10:47:07;1.43;;;0.37;;
19084;SDS011;9675;51.538;6.728;2022-09-09T10:50:09;0.43;;;0.30;;
19084;SDS011;9675;51.538;6.728;2022-09-09T10:53:21;1.07;;;0.50;;
19084;SDS011;9675;51.538;6.728;2022-09-09T10:56:03;1.10;;;0.53;;
19084;SDS011;9675;51.538;6.728;2022-09-09T10:58:38;0.63;;;0.27;;
19084;SDS011;9675;51.538;6.728;2022-09-09T11:01:15;3.10;;;0.43;;
19084;SDS011;9675;51.538;6.728;2022-09-09T11:03:51;1.30;;;0.30;;
19084;SDS011;9675;51.538;6.728;2022-09-09T11:06:27;0.50;;;0.20;;
19084;SDS011;9675;51.538;6.728;2022-09-09T11:09:03;5.23;;;0.83;;
19084;SDS011;9675;51.538;6.728;2022-09-09T11:11:33;2.43;;;0.40;;
19084;SDS011;9675;51.538;6.728;2022-09-09T11:14:11;1.20;;;0.13;;
19084;SDS011;9675;51.538;6.728;2022-09-09T11:16:47;2.23;;;0.57;;
19084;SDS011;9675;51.538;6.728;2022-09-09T11:19:22;2.13;;;0.53;;
19084;SDS011;9675;51.538;6.728;2022-09-09T11:21:59;1.80;;;0.40;;
19084;SDS011;9675;51.538;6.728;2022-09-09T11:24:33;2.50;;;0.53;;
19084;SDS011;9675;51.538;6.728;2022-09-09T11:27:07;4.83;;;0.20;;
19084;SDS011;9675;51.538;6.728;2022-09-09T11:32:51;0.00;;;0.00;;
19084;SDS011;9675;51.538;6.728;2022-09-09T11:35:54;2.40;;;0.40;;
19084;SDS011;9675;51.538;6.728;2022-09-09T11:38:45;6.93;;;0.43;;
19084;SDS011;9675;51.538;6.728;2022-09-09T11:41:17;0.67;;;0.40;;
19084;SDS011;9675;51.538;6.728;2022-09-09T11:43:48;7.90;;;0.47;;
19084;SDS011;9675;51.538;6.728;2022-09-09T11:46:18;0.70;;;0.63;;
19084;SDS011;9675;51.538;6.728;2022-09-09T11:48:58;2.20;;;0.43;;
19084;SDS011;9675;51.538;6.728;2022-09-09T11:51:28;4.80;;;0.43;;
19084;SDS011;9675;51.538;6.728;2022-09-09T11:53:58;0.20;;;0.20;;
19084;SDS011;9675;51.538;6.728;2022-09-09T11:56:29;1.17;;;0.23;;
19084;SDS011;9675;51.538;6.728;2022-09-09T11:59:00;1.50;;;0.27;;
19084;SDS011;9675;51.538;6.728;2022-09-09T12:01:34;2.60;;;0.30;;
19084;SDS011;9675;51.538;6.728;2022-09-09T12:04:06;0.80;;;0.43;;
19084;SDS011;9675;51.538;6.728;2022-09-09T12:06:43;1.83;;;0.37;;
19084;SDS011;9675;51.538;6.728;2022-09-09T12:09:18;3.10;;;0.20;;
19084;SDS011;9675;51.538;6.728;2022-09-09T12:12:05;0.20;;;0.20;;
19084;SDS011;9675;51.538;6.728;2022-09-09T12:14:55;0.40;;;0.10;;
19084;SDS011;9675;51.538;6.728;2022-09-09T12:17:30;0.40;;;0.20;;
19084;SDS011;9675;51.538;6.728;2022-09-09T12:20:10;0.20;;;0.20;;
19084;SDS011;9675;51.538;6.728;2022-09-09T12:25:51;0.27;;;0.20;;
19084;SDS011;9675;51.538;6.728;2022-09-09T12:28:47;0.90;;;0.37;;
19084;SDS011;9675;51.538;6.728;2022-09-09T12:31:25;2.10;;;0.10;;
19084;SDS011;9675;51.538;6.728;2022-09-09T12:34:09;1.03;;;0.40;;
19084;SDS011;9675;51.538;6.728;2022-09-09T12:36:41;5.87;;;0.37;;
19084;SDS011;9675;51.538;6.728;2022-09-09T12:39:18;0.23;;;0.23;;
19084;SDS011;9675;51.538;6.728;2022-09-09T12:41:53;2.43;;;0.20;;
19084;SDS011;9675;51.538;6.728;2022-09-09T12:44:23;1.40;;;0.40;;
19084;SDS011;9675;51.538;6.728;2022-09-09T12:46:53;0.40;;;0.10;;
19084;SDS011;9675;51.538;6.728;2022-09-09T12:49:25;0.20;;;0.10;;
19084;SDS011;9675;51.538;6.728;2022-09-09T12:52:00;0.10;;;0.10;;
19084;SDS011;9675;51.538;6.728;2022-09-09T12:54:31;0.40;;;0.10;;
19084;SDS011;9675;51.538;6.728;2022-09-09T12:57:01;0.10;;;0.10;;
19084;SDS011;9675;51.538;6.728;2022-09-09T12:59:36;0.13;;;0.13;;
19084;SDS011;9675;51.538;6.728;2022-09-09T13:02:11;0.73;;;0.50;;
19084;SDS011;9675;51.538;6.728;2022-09-09T13:04:48;1.13;;;0.10;;
19084;SDS011;9675;51.538;6.728;2022-09-09T13:07:17;0.20;;;0.20;;
19084;SDS011;9675;51.538;6.728;2022-09-09T13:09:47;3.33;;;0.40;;
19084;SDS011;9675;51.538;6.728;2022-09-09T13:12:16;1.80;;;0.33;;
19084;SDS011;9675;51.538;6.728;2022-09-09T13:14:49;0.13;;;0.13;;
19084;SDS011;9675;51.538;6.728;2022-09-09T13:17:21;0.20;;;0.17;;
19084;SDS011;9675;51.538;6.728;2022-09-09T13:19:54;0.77;;;0.23;;
19084;SDS011;9675;51.538;6.728;2022-09-09T13:22:26;2.50;;;0.80;;
19084;SDS011;9675;51.538;6.728;2022-09-09T13:25:01;1.30;;;0.20;;
19084;SDS011;9675;51.538;6.728;2022-09-09T13:27:33;0.83;;;0.20;;
19084;SDS011;9675;51.538;6.728;2022-09-09T13:32:59;0.30;;;0.20;;
19084;SDS011;9675;51.538;6.728;2022-09-09T13:35:29;0.57;;;0.40;;
19084;SDS011;9675;51.538;6.728;2022-09-09T13:37:57;1.70;;;0.20;;
19084;SDS011;9675;51.538;6.728;2022-09-09T13:40:26;1.60;;;0.40;;
19084;SDS011;9675;51.538;6.728;2022-09-09T13:42:55;0.70;;;0.30;;
19084;SDS011;9675;51.538;6.728;2022-09-09T13:45:25;0.40;;;0.10;;
19084;SDS011;9675;51.538;6.728;2022-09-09T13:47:53;1.33;;;0.50;;
19084;SDS011;9675;51.538;6.728;2022-09-09T13:50:22;0.60;;;0.20;;
19084;SDS011;9675;51.538;6.728;2022-09-09T13:52:52;1.53;;;0.20;;
19084;SDS011;9675;51.538;6.728;2022-09-09T13:55:23;0.47;;;0.20;;
19084;SDS011;9675;51.538;6.728;2022-09-09T13:57:53;3.90;;;0.43;;
19084;SDS011;9675;51.538;6.728;2022-09-09T14:00:22;6.33;;;0.57;;
19084;SDS011;9675;51.538;6.728;2022-09-09T14:02:52;0.97;;;0.20;;
19084;SDS011;9675;51.538;6.728;2022-09-09T14:05:20;3.67;;;0.60;;
19084;SDS011;9675;51.538;6.728;2022-09-09T14:07:48;0.20;;;0.20;;
19084;SDS011;9675;51.538;6.728;2022-09-09T14:10:16;5.93;;;0.70;;
19084;SDS011;9675;51.538;6.728;2022-09-09T14:12:44;0.73;;;0.20;;
19084;SDS011;9675;51.538;6.728;2022-09-09T14:15:11;1.13;;;0.37;;
19084;SDS011;9675;51.538;6.728;2022-09-09T14:17:40;0.97;;;0.30;;
19084;SDS011;9675;51.538;6.728;2022-09-09T14:20:08;1.17;;;0.27;;
19084;SDS011;9675;51.538;6.728;2022-09-09T14:22:40;1.20;;;0.30;;
19084;SDS011;9675;51.538;6.728;2022-09-09T14:25:09;1.40;;;0.50;;
19084;SDS011;9675;51.538;6.728;2022-09-09T14:27:36;1.03;;;0.20;;
19084;SDS011;9675;51.538;6.728;2022-09-09T14:30:04;0.23;;;0.20;;
19084;SDS011;9675;51.538;6.728;2022-09-09T14:32:33;4.23;;;0.30;;
19084;SDS011;9675;51.538;6.728;2022-09-09T14:35:01;0.53;;;0.13;;
19084;SDS011;9675;51.538;6.728;2022-09-09T14:37:29;3.00;;;0.43;;
19084;SDS011;9675;51.538;6.728;2022-09-09T14:39:56;0.83;;;0.27;;
19084;SDS011;9675;51.538;6.728;2022-09-09T14:42:24;0.20;;;0.20;;
19084;SDS011;9675;51.538;6.728;2022-09-09T14:44:51;5.20;;;1.13;;
19084;SDS011;9675;51.538;6.728;2022-09-09T14:47:19;3.60;;;0.40;;
19084;SDS011;9675;51.538;6.728;2022-09-09T14:49:46;1.13;;;0.30;;
19084;SDS011;9675;51.538;6.728;2022-09-09T14:52:15;0.83;;;0.50;;
19084;SDS011;9675;51.538;6.728;2022-09-09T14:54:43;0.20;;;0.10;;
19084;SDS011;9675;51.538;6.728;2022-09-09T14:57:10;0.53;;;0.30;;
19084;SDS011;9675;51.538;6.728;2022-09-09T14:59:37;1.80;;;0.60;;
19084;SDS011;9675;51.538;6.728;2022-09-09T15:02:04;0.70;;;0.33;;
19084;SDS011;9675;51.538;6.728;2022-09-09T15:04:31;4.13;;;0.60;;
19084;SDS011;9675;51.538;6.728;2022-09-09T15:06:58;0.10;;;0.10;;
19084;SDS011;9675;51.538;6.728;2022-09-09T15:09:27;0.80;;;0.20;;
19084;SDS011;9675;51.538;6.728;2022-09-09T15:11:54;0.37;;;0.30;;
19084;SDS011;9675;51.538;6.728;2022-09-09T15:14:21;0.60;;;0.30;;
19084;SDS011;9675;51.538;6.728;2022-09-09T15:16:48;1.27;;;0.30;;
19084;SDS011;9675;51.538;6.728;2022-09-09T15:19:16;0.70;;;0.37;;
19084;SDS011;9675;51.538;6.728;2022-09-09T15:21:43;0.30;;;0.20;;
19084;SDS011;9675;51.538;6.728;2022-09-09T15:24:10;1.53;;;0.20;;
19084;SDS011;9675;51.538;6.728;2022-09-09T15:26:40;2.13;;;0.20;;
19084;SDS011;9675;51.538;6.728;2022-09-09T15:29:07;0.20;;;0.20;;
19084;SDS011;9675;51.538;6.728;2022-09-09T15:31:34;0.40;;;0.10;;
19084;SDS011;9675;51.538;6.728;2022-09-09T15:34:03;0.67;;;0.20;;
19084;SDS011;9675;51.538;6.728;2022-09-09T15:36:33;1.57;;;0.50;;
19084;SDS011;9675;51.538;6.728;2022-09-09T15:39:03;2.80;;;0.70;;
19084;SDS011;9675;51.538;6.728;2022-09-09T15:41:33;1.13;;;0.80;;
19084;SDS011;9675;51.538;6.728;2022-09-09T15:44:02;0.87;;;0.67;;
19084;SDS011;9675;51.538;6.728;2022-09-09T15:46:31;3.00;;;0.83;;
19084;SDS011;9675;51.538;6.728;2022-09-09T15:49:08;0.53;;;0.30;;